Time;durP1;ratioP1;P1;durP2;ratioP2;P2;SDS_P1;SDS_P2;PMS_P1;PMS_P2;Temp;Humidity;BMP_temperature;BMP_pressure;BME280_temperature;BME280_humidity;BME280_pressure;Samples;Min_cycle;Max_cycle;Signal;HPM_P1;HPM_P2
2023/04/11 00:02:03;;;;;;;2.20;2.00;;;18.80;39.00;;;;;;5032957;28;20661;-49
2023/04/11 00:04:29;;;;;;;9.00;2.10;;;18.80;39.20;;;;;;5032939;28;20193;-51
2023/04/11 00:06:55;;;;;;;5.63;2.10;;;18.70;39.70;;;;;;5032905;28;20440;-50
2023/04/11 00:09:21;;;;;;;2.03;1.73;;;18.70;39.90;;;;;;5032576;28;20189;-51
2023/04/11 00:11:46;;;;;;;2.60;2.03;;;18.50;40.10;;;;;;5032761;28;20451;-48
2023/04/11 00:14:14;;;;;;;2.20;2.00;;;18.60;40.40;;;;;;5032590;28;20205;-48
2023/04/11 00:16:40;;;;;;;3.30;2.30;;;18.60;40.50;;;;;;5032396;28;20276;-49
2023/04/11 00:19:08;;;;;;;4.03;1.77;;;18.30;40.90;;;;;;5032230;28;20801;-51
2023/04/11 00:21:34;;;;;;;3.60;1.70;;;18.60;40.90;;;;;;5032159;28;20862;-50
2023/04/11 00:24:00;;;;;;;1.83;1.60;;;18.80;40.80;;;;;;5030826;28;20514;-51
2023/04/11 00:26:26;;;;;;;3.00;2.00;;;18.80;40.70;;;;;;5032441;28;20544;-51
2023/04/11 00:28:51;;;;;;;4.60;2.57;;;18.70;40.80;;;;;;5032094;28;20576;-52
2023/04/11 00:31:17;;;;;;;3.10;1.73;;;18.60;41.10;;;;;;5032228;28;20199;-51
2023/04/11 00:33:43;;;;;;;3.70;1.57;;;18.50;41.30;;;;;;5032409;28;20260;-47
2023/04/11 00:36:09;;;;;;;3.53;1.70;;;18.60;41.30;;;;;;5032046;28;20225;-50
2023/04/11 00:38:35;;;;;;;1.47;1.37;;;18.70;41.20;;;;;;5032055;28;20482;-49
2023/04/11 00:41:00;;;;;;;3.33;2.37;;;18.50;41.40;;;;;;5032186;28;20428;-51
2023/04/11 00:43:26;;;;;;;3.20;1.80;;;18.40;41.80;;;;;;5032244;28;20267;-51
2023/04/11 00:45:51;;;;;;;2.70;2.00;;;18.50;41.70;;;;;;5032082;28;20657;-50
2023/04/11 00:48:17;;;;;;;4.50;1.93;;;18.50;42.00;;;;;;5031658;28;20226;-50
2023/04/11 00:50:44;;;;;;;3.00;1.70;;;18.60;41.60;;;;;;5030194;28;20196;-47
2023/04/11 00:53:12;;;;;;;3.43;1.70;;;18.70;41.60;;;;;;5031874;28;20539;-48
2023/04/11 00:55:39;;;;;;;2.33;1.50;;;18.60;41.60;;;;;;5018480;28;20522;-47
2023/04/11 00:58:07;;;;;;;2.47;1.80;;;18.50;42.00;;;;;;5032255;28;20907;-50
2023/04/11 01:00:34;;;;;;;2.10;1.70;;;18.30;42.70;;;;;;5031587;28;20437;-50
2023/04/11 01:03:00;;;;;;;2.83;1.40;;;18.20;43.20;;;;;;5031632;28;20943;-49
2023/04/11 01:05:26;;;;;;;2.20;1.97;;;18.10;43.20;;;;;;5031552;28;20934;-50
2023/04/11 01:07:54;;;;;;;2.87;1.77;;;18.10;44.00;;;;;;5031696;28;20433;-50
2023/04/11 01:10:21;;;;;;;2.40;1.80;;;17.90;43.70;;;;;;5031258;28;20435;-53
2023/04/11 01:12:47;;;;;;;5.03;1.90;;;17.90;44.00;;;;;;5031827;28;20436;-51
2023/04/11 01:15:13;;;;;;;2.50;1.73;;;17.60;43.80;;;;;;5031588;28;20498;-51
2023/04/11 01:17:40;;;;;;;3.57;1.83;;;17.60;44.10;;;;;;5029692;28;20428;-48
2023/04/11 01:20:07;;;;;;;2.00;1.80;;;17.80;44.10;;;;;;5031042;28;20278;-51
2023/04/11 01:22:36;;;;;;;2.47;1.77;;;17.90;43.90;;;;;;5031400;28;20908;-51
2023/04/11 01:25:02;;;;;;;2.07;1.87;;;18.00;43.60;;;;;;5031475;28;20927;-50
2023/04/11 01:27:28;;;;;;;3.50;2.07;;;18.00;43.50;;;;;;5031240;28;20435;-51
2023/04/11 01:29:54;;;;;;;2.00;1.37;;;17.90;43.70;;;;;;5030981;28;20420;-50
2023/04/11 01:32:19;;;;;;;2.10;1.90;;;17.80;44.30;;;;;;5030586;28;20197;-50
2023/04/11 01:34:47;;;;;;;1.70;1.60;;;17.70;44.60;;;;;;5030959;28;20193;-48
2023/04/11 01:37:12;;;;;;;2.03;1.83;;;17.90;44.70;;;;;;5030940;28;20315;-53
2023/04/11 01:39:38;;;;;;;2.27;1.37;;;18.00;44.70;;;;;;5030790;28;20544;-50
2023/04/11 01:42:05;;;;;;;2.73;1.47;;;18.30;44.80;;;;;;5031338;28;20193;-50
2023/04/11 01:44:32;;;;;;;2.07;1.87;;;18.10;46.20;;;;;;5029449;28;20182;-53
2023/04/11 01:46:58;;;;;;;1.97;1.70;;;18.30;47.60;;;;;;5030939;28;20447;-57
2023/04/11 01:49:24;;;;;;;2.30;2.00;;;18.40;48.60;;;;;;5030614;28;20836;-53
2023/04/11 01:51:50;;;;;;;3.40;2.00;;;18.50;49.90;;;;;;5031012;28;20967;-54
2023/04/11 01:54:16;;;;;;;5.53;2.10;;;18.50;49.90;;;;;;5030767;28;20472;-52
2023/04/11 01:56:42;;;;;;;1.93;1.73;;;18.50;51.00;;;;;;5030554;28;20311;-54
2023/04/11 01:59:07;;;;;;;1.90;1.80;;;18.20;51.50;;;;;;5030430;28;20554;-55
2023/04/11 02:01:33;;;;;;;3.03;1.93;;;18.00;51.80;;;;;;5030962;28;20193;-55
2023/04/11 02:03:59;;;;;;;2.60;2.10;;;17.90;52.20;;;;;;5030919;28;20193;-54
2023/04/11 02:06:26;;;;;;;1.93;1.83;;;17.70;52.30;;;;;;5030570;28;20440;-54
2023/04/11 02:08:52;;;;;;;2.20;1.63;;;17.80;52.60;;;;;;5030283;28;20255;-54
2023/04/11 02:11:18;;;;;;;1.90;1.70;;;17.80;52.50;;;;;;5029179;28;20420;-54
2023/04/11 02:13:44;;;;;;;3.80;2.07;;;17.80;53.00;;;;;;5030632;28;20626;-53
2023/04/11 02:16:14;;;;;;;3.50;2.00;;;17.40;54.30;;;;;;5030505;28;20703;-54
2023/04/11 02:18:43;;;;;;;2.07;1.87;;;17.30;55.50;;;;;;5030313;28;20431;-54
2023/04/11 02:21:10;;;;;;;2.67;1.90;;;17.50;56.60;;;;;;5030387;28;20424;-52
2023/04/11 02:23:35;;;;;;;2.40;2.20;;;17.50;57.80;;;;;;5030592;28;20515;-54
2023/04/11 02:26:02;;;;;;;2.50;2.03;;;17.40;58.10;;;;;;5030526;28;20499;-54
2023/04/11 02:28:28;;;;;;;2.60;1.80;;;17.30;58.40;;;;;;5030246;28;20197;-53
2023/04/11 02:30:54;;;;;;;2.37;2.00;;;17.10;59.40;;;;;;5030469;28;20424;-53
2023/04/11 02:33:20;;;;;;;2.40;2.20;;;16.70;60.90;;;;;;5030545;28;20212;-54
2023/04/11 02:35:46;;;;;;;1.87;1.77;;;16.40;62.60;;;;;;5030370;28;20483;-54
2023/04/11 02:38:11;;;;;;;1.73;1.63;;;16.30;63.80;;;;;;5028600;28;20213;-54
2023/04/11 02:40:37;;;;;;;2.67;1.60;;;16.20;64.90;;;;;;5030355;28;20686;-51
2023/04/11 02:43:02;;;;;;;1.83;1.73;;;16.20;65.80;;;;;;5030684;28;20205;-53
2023/04/11 02:45:28;;;;;;;1.70;1.60;;;16.20;66.40;;;;;;5033461;28;20189;-54
2023/04/11 02:47:54;;;;;;;2.70;2.43;;;16.10;66.40;;;;;;5034250;28;20548;-54
2023/04/11 02:50:19;;;;;;;1.60;1.50;;;16.40;66.40;;;;;;5034001;28;20208;-52
2023/04/11 02:52:46;;;;;;;1.73;1.63;;;16.50;66.10;;;;;;5034219;28;20196;-49
2023/04/11 02:55:12;;;;;;;3.73;1.60;;;16.70;65.30;;;;;;5034231;28;20201;-54
2023/04/11 02:57:38;;;;;;;2.13;1.50;;;16.70;65.10;;;;;;5034201;28;20424;-52
2023/04/11 03:00:06;;;;;;;1.43;1.33;;;16.80;64.50;;;;;;5033698;28;20580;-52
2023/04/11 03:02:32;;;;;;;2.27;1.43;;;16.70;64.20;;;;;;5034057;28;20823;-53
2023/04/11 03:04:57;;;;;;;2.27;1.40;;;16.80;64.10;;;;;;5032867;28;21092;-55
2023/04/11 03:07:23;;;;;;;2.50;1.33;;;16.80;63.80;;;;;;5033447;28;20514;-52
2023/04/11 03:09:49;;;;;;;1.40;1.30;;;16.50;63.90;;;;;;5033647;28;20667;-53
2023/04/11 03:12:15;;;;;;;3.97;1.10;;;16.50;64.10;;;;;;5033688;28;20220;-53
2023/04/11 03:14:40;;;;;;;1.70;1.13;;;16.40;64.20;;;;;;5033868;28;20624;-54
2023/04/11 03:17:06;;;;;;;1.23;1.10;;;16.50;64.20;;;;;;5033865;28;20235;-55
2023/04/11 03:19:31;;;;;;;1.17;1.10;;;16.30;64.60;;;;;;5033577;28;20197;-54
2023/04/11 03:21:57;;;;;;;2.47;1.10;;;16.10;65.60;;;;;;5033760;28;20193;-53
2023/04/11 03:24:22;;;;;;;2.30;1.33;;;16.10;65.60;;;;;;5033559;28;20201;-51
2023/04/11 03:26:48;;;;;;;3.17;1.33;;;16.10;65.60;;;;;;5033589;28;20193;-54
2023/04/11 03:29:15;;;;;;;1.00;1.00;;;16.20;65.40;;;;;;5033169;28;20197;-54
2023/04/11 03:31:40;;;;;;;0.80;0.80;;;16.20;65.00;;;;;;5033211;28;20235;-55
2023/04/11 03:34:06;;;;;;;1.00;0.90;;;16.00;65.00;;;;;;5032284;28;21165;-54
2023/04/11 03:36:32;;;;;;;1.13;1.03;;;16.10;64.90;;;;;;5033506;28;20283;-53
2023/04/11 03:38:57;;;;;;;1.10;1.00;;;16.10;64.60;;;;;;5033036;28;20200;-53
2023/04/11 03:41:23;;;;;;;1.43;1.00;;;16.10;65.30;;;;;;5033497;28;20189;-53
2023/04/11 03:43:48;;;;;;;1.13;1.03;;;16.20;65.30;;;;;;5033263;28;20193;-53
2023/04/11 03:46:14;;;;;;;3.20;0.97;;;16.30;64.30;;;;;;5033327;28;20193;-54
2023/04/11 03:48:39;;;;;;;5.10;1.50;;;16.30;63.70;;;;;;5033044;28;20201;-50
2023/04/11 03:51:06;;;;;;;2.40;1.20;;;16.30;63.40;;;;;;5033323;28;20255;-50
2023/04/11 03:53:32;;;;;;;1.90;1.17;;;16.40;63.20;;;;;;5032705;28;20258;-52
2023/04/11 03:55:57;;;;;;;1.93;1.33;;;16.20;62.50;;;;;;5032271;28;20536;-54
2023/04/11 03:58:23;;;;;;;4.60;1.47;;;16.10;62.50;;;;;;5032794;28;20202;-54
2023/04/11 04:00:48;;;;;;;2.20;0.97;;;16.20;62.10;;;;;;5031245;28;20260;-52
2023/04/11 04:03:14;;;;;;;1.53;0.90;;;16.20;61.50;;;;;;5032988;28;20200;-50
2023/04/11 04:05:40;;;;;;;2.37;1.43;;;16.10;61.00;;;;;;5033040;28;20205;-53
2023/04/11 04:08:06;;;;;;;5.43;1.50;;;16.00;61.10;;;;;;5032604;28;20197;-54
2023/04/11 04:10:32;;;;;;;4.10;1.30;;;16.00;60.70;;;;;;5033004;28;20193;-54
2023/04/11 04:12:57;;;;;;;1.33;1.13;;;15.90;60.90;;;;;;5032764;28;20431;-53
2023/04/11 04:15:23;;;;;;;2.80;1.10;;;15.90;61.10;;;;;;5032647;28;20691;-53
2023/04/11 04:17:50;;;;;;;6.40;1.37;;;15.90;62.30;;;;;;5032462;28;20676;-55
2023/04/11 04:20:16;;;;;;;2.33;1.03;;;15.70;61.70;;;;;;5032805;28;20186;-50
2023/04/11 04:22:41;;;;;;;3.60;1.17;;;15.50;62.20;;;;;;5032526;28;20443;-52
2023/04/11 04:25:11;;;;;;;5.37;1.60;;;15.40;62.80;;;;;;5032557;28;20653;-54
2023/04/11 04:27:43;;;;;;;1.20;0.80;;;15.50;62.50;;;;;;5030958;28;20193;-54
2023/04/11 04:30:18;;;;;;;2.20;2.00;;;15.40;62.80;;;;;;5032078;28;20432;-53
2023/04/11 04:32:44;;;;;;;3.20;1.20;;;15.40;63.00;;;;;;5032477;28;20442;-53
2023/04/11 04:35:10;;;;;;;4.30;1.63;;;15.30;63.40;;;;;;5032480;28;20428;-51
2023/04/11 04:37:44;;;;;;;4.40;1.27;;;15.40;63.40;;;;;;5032330;28;20432;-53
2023/04/11 04:40:14;;;;;;;1.83;1.10;;;15.30;63.20;;;;;;5032027;28;20790;-53
2023/04/11 04:42:41;;;;;;;2.30;1.60;;;15.10;63.80;;;;;;5031974;28;20942;-49
2023/04/11 04:45:08;;;;;;;2.40;2.10;;;14.80;64.80;;;;;;5032032;28;20791;-53
2023/04/11 04:47:35;;;;;;;9.43;1.70;;;14.70;65.70;;;;;;5032222;28;20432;-50
2023/04/11 04:50:01;;;;;;;3.63;2.40;;;14.80;65.70;;;;;;5031557;28;20420;-52
2023/04/11 04:52:27;;;;;;;4.20;1.50;;;14.80;65.90;;;;;;5031612;28;20923;-55
2023/04/11 04:54:56;;;;;;;3.43;1.30;;;14.80;66.00;;;;;;5030870;28;20244;-49
2023/04/11 04:57:22;;;;;;;2.47;1.63;;;14.80;65.70;;;;;;5031872;28;20575;-50
2023/04/11 04:59:48;;;;;;;3.20;1.43;;;14.90;66.00;;;;;;5031742;28;20427;-53
2023/04/11 05:02:15;;;;;;;2.70;1.47;;;14.80;65.50;;;;;;5031826;28;20527;-54
2023/04/11 05:04:41;;;;;;;2.23;1.00;;;14.40;66.30;;;;;;5031785;28;20251;-51
2023/04/11 05:07:07;;;;;;;2.10;1.17;;;14.60;66.50;;;;;;5031690;28;20856;-53
2023/04/11 05:09:32;;;;;;;2.27;1.13;;;14.50;65.60;;;;;;5031335;28;20205;-54
2023/04/11 05:11:58;;;;;;;1.37;1.10;;;14.40;65.70;;;;;;5031671;28;20645;-49
2023/04/11 05:14:23;;;;;;;2.90;1.57;;;14.40;66.40;;;;;;5031568;28;20185;-49
2023/04/11 05:16:50;;;;;;;1.23;1.00;;;14.00;66.90;;;;;;5031567;28;20232;-50
2023/04/11 05:19:15;;;;;;;1.87;0.90;;;14.00;66.80;;;;;;5030929;28;20714;-50
2023/04/11 05:21:41;;;;;;;1.73;1.07;;;13.50;65.50;;;;;;5030145;28;20443;-50
2023/04/11 05:24:06;;;;;;;2.20;1.00;;;13.10;67.20;;;;;;5031409;28;20248;-53
2023/04/11 05:26:32;;;;;;;3.53;1.23;;;13.00;66.70;;;;;;5031430;28;20220;-50
2023/04/11 05:28:58;;;;;;;1.13;0.80;;;13.20;67.50;;;;;;5031069;28;20280;-50
2023/04/11 05:31:26;;;;;;;2.83;1.00;;;13.00;66.20;;;;;;5031319;28;20613;-50
2023/04/11 05:33:52;;;;;;;3.63;1.07;;;13.00;66.90;;;;;;5031224;28;20277;-51
2023/04/11 05:36:18;;;;;;;2.37;0.97;;;12.90;65.50;;;;;;5031026;28;20479;-50
2023/04/11 05:38:44;;;;;;;2.33;1.00;;;12.90;65.90;;;;;;5030941;28;20185;-53
2023/04/11 05:41:10;;;;;;;1.43;1.27;;;12.90;65.40;;;;;;5031059;28;20572;-49
2023/04/11 05:43:36;;;;;;;1.60;1.00;;;13.00;65.00;;;;;;5031192;28;20419;-53
2023/04/11 05:46:03;;;;;;;3.40;1.00;;;13.00;63.90;;;;;;5031270;28;20515;-53
2023/04/11 05:48:29;;;;;;;3.67;1.27;;;13.10;63.70;;;;;;5029200;28;20897;-49
2023/04/11 05:50:56;;;;;;;1.63;0.80;;;13.20;63.30;;;;;;5031025;28;20428;-50
2023/04/11 05:53:21;;;;;;;3.17;1.50;;;13.30;62.40;;;;;;5030838;28;20241;-51
2023/04/11 05:55:47;;;;;;;1.57;0.90;;;13.40;61.20;;;;;;5031010;28;20498;-51
2023/04/11 05:58:12;;;;;;;1.70;1.00;;;13.70;60.70;;;;;;5030670;28;20185;-50
2023/04/11 06:00:38;;;;;;;7.30;1.20;;;13.80;60.20;;;;;;5031059;28;20255;-49
2023/04/11 06:03:06;;;;;;;1.60;1.20;;;14.00;59.90;;;;;;5031006;28;20672;-53
2023/04/11 06:05:33;;;;;;;2.27;1.13;;;14.00;59.20;;;;;;5031032;28;20205;-50
2023/04/11 06:08:00;;;;;;;3.77;1.10;;;14.10;59.20;;;;;;5030452;28;20497;-49
2023/04/11 06:10:26;;;;;;;2.57;1.30;;;14.10;59.20;;;;;;5030694;28;20430;-53
2023/04/11 06:12:52;;;;;;;2.80;1.03;;;14.20;58.80;;;;;;5030644;28;20424;-49
2023/04/11 06:15:18;;;;;;;5.33;1.57;;;14.20;58.90;;;;;;5029001;28;20432;-50
2023/04/11 06:17:44;;;;;;;4.17;0.93;;;14.30;58.60;;;;;;5030196;28;20437;-53
2023/04/11 06:20:10;;;;;;;2.60;1.30;;;14.10;58.60;;;;;;5030329;28;20416;-53
2023/04/11 06:22:38;;;;;;;2.77;1.10;;;14.20;58.90;;;;;;5030463;28;20681;-51
2023/04/11 06:25:05;;;;;;;2.90;1.40;;;14.20;58.60;;;;;;5030593;28;20475;-51
2023/04/11 06:27:30;;;;;;;3.13;1.23;;;14.30;58.40;;;;;;5030433;28;20851;-51
2023/04/11 06:29:56;;;;;;;2.03;1.33;;;14.30;58.20;;;;;;5030354;28;20463;-50
2023/04/11 06:32:21;;;;;;;2.27;1.47;;;14.40;58.10;;;;;;5029217;28;20574;-53
2023/04/11 06:34:47;;;;;;;2.63;1.20;;;14.20;58.00;;;;;;5030684;28;20193;-49
2023/04/11 06:37:14;;;;;;;4.53;0.97;;;14.20;58.10;;;;;;5030551;28;20220;-50
2023/04/11 06:39:40;;;;;;;3.10;1.30;;;14.20;58.50;;;;;;5030160;28;20189;-52
2023/04/11 06:42:05;;;;;;;3.10;1.10;;;14.40;58.60;;;;;;5028789;28;20517;-51
2023/04/11 06:44:31;;;;;;;3.93;1.33;;;14.40;57.90;;;;;;5030408;28;20189;-49
2023/04/11 06:46:57;;;;;;;4.20;1.30;;;14.40;58.00;;;;;;5030409;28;20604;-51
2023/04/11 06:49:23;;;;;;;1.67;1.10;;;14.50;58.00;;;;;;5029777;28;20272;-50
2023/04/11 06:51:49;;;;;;;2.80;1.80;;;14.50;57.90;;;;;;5030469;28;21026;-51
2023/04/11 06:54:19;;;;;;;3.33;2.17;;;14.50;57.90;;;;;;5030613;28;20233;-52
2023/04/11 06:56:44;;;;;;;2.57;1.53;;;14.20;57.80;;;;;;5030106;28;20564;-50
2023/04/11 06:59:10;;;;;;;2.60;1.23;;;14.30;58.10;;;;;;5029977;28;20454;-50
2023/04/11 07:01:39;;;;;;;1.73;1.30;;;14.30;58.00;;;;;;5030290;28;20193;-50
2023/04/11 07:04:05;;;;;;;1.30;1.20;;;14.40;58.00;;;;;;5030548;28;20193;-49
2023/04/11 07:06:31;;;;;;;2.23;1.20;;;14.30;57.50;;;;;;5030202;28;20474;-51
2023/04/11 07:08:59;;;;;;;1.73;1.20;;;14.00;57.80;;;;;;5028370;28;20416;-50
2023/04/11 07:11:25;;;;;;;3.57;1.93;;;14.00;58.50;;;;;;5030041;28;20439;-50
2023/04/11 07:13:51;;;;;;;3.93;1.80;;;14.00;58.70;;;;;;5030097;28;20432;-50
2023/04/11 07:16:17;;;;;;;2.80;1.30;;;14.10;59.00;;;;;;5030029;28;20490;-50
2023/04/11 07:18:43;;;;;;;1.60;1.50;;;13.90;58.30;;;;;;5028345;28;20668;-53
2023/04/11 07:21:12;;;;;;;3.10;1.23;;;13.60;58.90;;;;;;5029963;28;20201;-50
2023/04/11 07:23:38;;;;;;;1.37;1.07;;;13.80;59.30;;;;;;5029973;28;20404;-50
2023/04/11 07:26:04;;;;;;;1.93;1.20;;;13.90;59.50;;;;;;5030203;28;20424;-49
2023/04/11 07:28:32;;;;;;;4.67;1.53;;;14.00;59.30;;;;;;5029523;28;20436;-50
2023/04/11 07:30:58;;;;;;;5.27;1.40;;;14.20;59.10;;;;;;5030468;28;20197;-53
2023/04/11 07:33:24;;;;;;;6.87;1.53;;;14.30;58.50;;;;;;5033524;28;20451;-49
2023/04/11 07:35:49;;;;;;;4.17;1.63;;;14.30;58.20;;;;;;5031776;28;20225;-49
2023/04/11 07:38:28;;;;;;;3.40;1.30;;;14.20;58.30;;;;;;5033162;28;20195;-50
2023/04/11 07:40:57;;;;;;;4.70;1.10;;;14.00;58.40;;;;;;5033513;28;20197;-50
2023/04/11 07:43:25;;;;;;;4.10;1.20;;;13.90;58.90;;;;;;5033519;28;20937;-49
2023/04/11 07:45:51;;;;;;;2.40;1.00;;;14.10;59.00;;;;;;5033211;28;20486;-49
2023/04/11 07:48:16;;;;;;;2.77;1.17;;;14.10;58.80;;;;;;5032945;28;20427;-51
2023/04/11 07:50:42;;;;;;;4.40;1.33;;;14.10;58.60;;;;;;5033181;28;20779;-50
2023/04/11 07:53:09;;;;;;;5.93;1.40;;;14.00;58.60;;;;;;5033235;28;20235;-49
2023/04/11 07:55:36;;;;;;;7.27;1.97;;;14.30;58.40;;;;;;5033077;28;20299;-49
2023/04/11 07:58:01;;;;;;;3.80;1.30;;;14.20;58.00;;;;;;5032890;28;20460;-49
2023/04/11 08:00:27;;;;;;;2.53;1.30;;;14.10;58.50;;;;;;5033037;28;20487;-52
2023/04/11 08:02:53;;;;;;;3.50;1.37;;;14.00;58.40;;;;;;5031291;28;20254;-51
2023/04/11 08:05:19;;;;;;;3.03;1.40;;;13.80;58.20;;;;;;5032808;28;20437;-50
2023/04/11 08:07:44;;;;;;;3.57;1.10;;;13.70;59.00;;;;;;5032781;28;20892;-50
2023/04/11 08:10:10;;;;;;;9.07;3.60;;;13.70;58.40;;;;;;5032950;28;21015;-50
2023/04/11 08:12:36;;;;;;;4.60;1.97;;;13.70;57.40;;;;;;5032946;28;20193;-50
2023/04/11 08:15:01;;;;;;;6.77;1.83;;;14.00;57.70;;;;;;5032748;28;20278;-50
2023/04/11 08:17:27;;;;;;;9.13;1.90;;;14.00;56.70;;;;;;5032349;28;20231;-51
2023/04/11 08:19:56;;;;;;;2.60;1.23;;;13.90;57.10;;;;;;5032702;28;20193;-49
2023/04/11 08:22:23;;;;;;;3.93;1.30;;;14.00;56.80;;;;;;5032735;28;20428;-50
2023/04/11 08:24:48;;;;;;;5.67;1.50;;;14.10;56.90;;;;;;5032709;28;20428;-50
2023/04/11 08:27:14;;;;;;;2.33;1.23;;;14.10;56.30;;;;;;5032719;28;20432;-50
2023/04/11 08:29:40;;;;;;;4.93;1.60;;;14.30;56.30;;;;;;5030518;28;20599;-50
2023/04/11 08:32:05;;;;;;;3.30;1.57;;;14.40;55.70;;;;;;5032803;28;20185;-49
2023/04/11 08:34:32;;;;;;;3.33;1.10;;;14.40;55.10;;;;;;5032468;28;20234;-50
2023/04/11 08:36:57;;;;;;;4.77;1.27;;;14.60;54.90;;;;;;5032253;28;20232;-50
2023/04/11 08:39:23;;;;;;;4.23;1.60;;;14.60;54.10;;;;;;5031854;28;20439;-50
2023/04/11 08:41:49;;;;;;;3.47;1.27;;;14.30;53.30;;;;;;5031773;28;20267;-53
2023/04/11 08:44:14;;;;;;;4.27;1.43;;;14.50;53.40;;;;;;5032406;28;20196;-54
2023/04/11 08:46:41;;;;;;;4.03;1.40;;;14.40;53.00;;;;;;5032208;28;20559;-54
2023/04/11 08:49:07;;;;;;;5.23;1.40;;;14.30;52.70;;;;;;5031542;28;20212;-55
2023/04/11 08:51:32;;;;;;;3.60;1.40;;;14.10;52.30;;;;;;5032286;28;20907;-53
2023/04/11 08:54:03;;;;;;;3.53;1.63;;;13.90;52.40;;;;;;5032013;28;20233;-54
2023/04/11 08:56:29;;;;;;;11.07;1.50;;;13.80;52.20;;;;;;5030402;28;20232;-53
2023/04/11 08:58:55;;;;;;;1.63;1.07;;;14.00;52.70;;;;;;5031567;28;20420;-53
2023/04/11 09:01:31;;;;;;;3.60;1.70;;;13.90;51.90;;;;;;5031992;28;20675;-53
2023/04/11 09:04:00;;;;;;;5.73;1.30;;;13.90;52.20;;;;;;5032081;28;20678;-49
2023/04/11 09:06:31;;;;;;;4.60;1.40;;;13.80;51.30;;;;;;5031698;28;20631;-52
2023/04/11 09:08:58;;;;;;;4.30;1.40;;;14.10;51.10;;;;;;5031404;28;20442;-50
2023/04/11 09:11:25;;;;;;;1.40;1.00;;;14.20;51.40;;;;;;5031656;28;20435;-51
2023/04/11 09:14:10;;;;;;;4.63;1.40;;;14.30;49.40;;;;;;5031707;28;20424;-53
2023/04/11 09:16:36;;;;;;;4.80;1.67;;;14.50;50.40;;;;;;5031680;28;20475;-54
2023/04/11 09:19:02;;;;;;;2.10;1.00;;;14.50;49.70;;;;;;5031359;28;20420;-51
2023/04/11 09:21:28;;;;;;;5.73;1.30;;;14.30;48.90;;;;;;5030530;28;20440;-55
2023/04/11 09:24:14;;;;;;;5.50;1.60;;;14.50;49.80;;;;;;5030811;28;20901;-53
2023/04/11 09:26:40;;;;;;;4.20;1.40;;;14.60;49.60;;;;;;5031336;28;20201;-50
2023/04/11 09:29:05;;;;;;;6.10;1.40;;;14.80;48.40;;;;;;5031080;28;20431;-51
2023/04/11 09:31:41;;;;;;;3.63;1.47;;;15.10;48.00;;;;;;5031270;28;20691;-51
2023/04/11 09:34:07;;;;;;;8.70;1.40;;;15.20;48.30;;;;;;5030049;28;20207;-52
2023/04/11 09:36:33;;;;;;;2.30;1.17;;;15.30;47.20;;;;;;5031115;28;20574;-51
2023/04/11 09:38:58;;;;;;;4.17;1.40;;;15.30;46.70;;;;;;5030689;28;20259;-50
2023/04/11 09:41:32;;;;;;;6.63;1.30;;;15.40;47.60;;;;;;5031282;28;20208;-51
2023/04/11 09:43:58;;;;;;;2.60;1.50;;;15.30;47.10;;;;;;5031043;28;20209;-50
2023/04/11 09:46:24;;;;;;;3.97;2.17;;;15.30;47.00;;;;;;5031145;28;20428;-50
2023/04/11 09:48:53;;;;;;;7.67;1.77;;;15.30;47.10;;;;;;5028966;28;20470;-50
2023/04/11 09:51:19;;;;;;;4.83;1.53;;;15.30;47.50;;;;;;5031196;28;20462;-51
2023/04/11 09:53:45;;;;;;;6.40;1.73;;;15.40;47.80;;;;;;5030065;28;20521;-52
2023/04/11 09:56:12;;;;;;;3.53;2.43;;;15.60;47.70;;;;;;5030897;28;20486;-50
2023/04/11 09:58:38;;;;;;;2.53;1.40;;;15.80;46.40;;;;;;5030336;28;20788;-50
2023/04/11 10:01:07;;;;;;;4.37;1.20;;;15.60;45.60;;;;;;5031218;28;20420;-51
2023/04/11 10:03:34;;;;;;;4.50;1.30;;;15.80;45.90;;;;;;5030898;28;21067;-51
2023/04/11 10:06:03;;;;;;;2.90;1.33;;;15.90;45.20;;;;;;5030730;28;20424;-50
2023/04/11 10:08:31;;;;;;;5.03;1.27;;;15.80;43.40;;;;;;5030505;28;20433;-50
2023/04/11 10:10:59;;;;;;;2.93;1.13;;;15.80;43.20;;;;;;5030776;28;20443;-50
2023/04/11 10:13:39;;;;;;;5.50;1.37;;;16.20;43.30;;;;;;5030708;28;20432;-54
2023/04/11 10:16:08;;;;;;;4.70;2.03;;;16.30;43.20;;;;;;5029130;28;20483;-52
2023/04/11 10:18:53;;;;;;;2.47;1.00;;;16.30;42.30;;;;;;5030366;28;20436;-50
2023/04/11 10:21:33;;;;;;;2.80;1.23;;;16.40;42.50;;;;;;5030580;28;20430;-51
2023/04/11 10:24:20;;;;;;;5.83;1.60;;;16.20;43.20;;;;;;5030549;28;20923;-54
2023/04/11 10:26:48;;;;;;;2.93;1.57;;;16.30;43.10;;;;;;5030708;28;20574;-54
2023/04/11 10:29:32;;;;;;;4.07;1.47;;;16.30;43.00;;;;;;5030361;28;20428;-54
2023/04/11 10:32:16;;;;;;;2.43;1.40;;;16.20;42.60;;;;;;5030540;28;20789;-54
2023/04/11 10:34:51;;;;;;;5.40;1.40;;;16.40;43.40;;;;;;5030396;28;20478;-52
2023/04/11 10:37:18;;;;;;;3.10;1.33;;;16.80;43.40;;;;;;5030125;28;20925;-54
2023/04/11 10:39:52;;;;;;;5.47;1.70;;;16.90;42.60;;;;;;5030611;28;20450;-54
2023/04/11 10:42:26;;;;;;;2.00;1.10;;;16.90;42.80;;;;;;5029022;28;20822;-55
2023/04/11 10:45:20;;;;;;;4.30;1.30;;;16.60;41.80;;;;;;5030450;28;20435;-54
2023/04/11 10:47:55;;;;;;;3.47;1.50;;;16.20;43.60;;;;;;5030361;28;20436;-54
2023/04/11 10:50:24;;;;;;;3.80;1.37;;;15.80;44.50;;;;;;5030055;28;20431;-53
2023/04/11 10:52:50;;;;;;;4.03;1.30;;;15.60;45.40;;;;;;5030092;28;20431;-52
2023/04/11 10:55:17;;;;;;;5.60;1.80;;;15.80;46.40;;;;;;5030369;28;20432;-53
2023/04/11 10:58:06;;;;;;;5.43;1.87;;;16.10;46.20;;;;;;5029948;28;20488;-54
2023/04/11 11:00:50;;;;;;;3.27;1.43;;;16.00;45.20;;;;;;5030413;28;20447;-52
2023/04/11 11:03:15;;;;;;;7.03;1.50;;;15.70;44.50;;;;;;5030133;28;20463;-55
2023/04/11 11:05:41;;;;;;;2.20;1.20;;;15.80;44.30;;;;;;5032118;28;21252;-54
2023/04/11 11:08:07;;;;;;;5.07;1.70;;;15.70;44.20;;;;;;5033556;28;20197;-51
2023/04/11 11:10:46;;;;;;;3.40;1.30;;;15.80;43.70;;;;;;5032457;28;20189;-54
2023/04/11 11:13:14;;;;;;;3.20;1.10;;;16.10;43.50;;;;;;5033922;28;20432;-54
2023/04/11 11:15:46;;;;;;;4.70;1.50;;;16.20;42.80;;;;;;5033823;28;20497;-51
2023/04/11 11:18:14;;;;;;;3.03;1.57;;;15.90;43.00;;;;;;5033281;28;20946;-50
2023/04/11 11:20:40;;;;;;;2.83;1.40;;;16.00;43.20;;;;;;5033706;28;20431;-53
2023/04/11 11:23:08;;;;;;;4.80;1.17;;;16.10;42.20;;;;;;5033787;28;20439;-54
2023/04/11 11:25:35;;;;;;;2.57;1.40;;;16.30;42.60;;;;;;5033807;28;20958;-51
2023/04/11 11:28:05;;;;;;;2.50;1.20;;;16.30;41.30;;;;;;5033119;28;20956;-50
2023/04/11 11:30:31;;;;;;;4.10;1.53;;;16.20;41.20;;;;;;5034000;28;20419;-54
2023/04/11 11:32:57;;;;;;;4.20;1.40;;;16.40;41.60;;;;;;5033542;28;20928;-54
2023/04/11 11:35:23;;;;;;;2.03;1.10;;;16.60;41.60;;;;;;5033625;28;20416;-50
2023/04/11 11:37:53;;;;;;;2.33;1.10;;;16.80;40.10;;;;;;5031637;28;20193;-54
2023/04/11 11:40:23;;;;;;;1.50;1.10;;;16.90;39.30;;;;;;5033751;28;20782;-54
2023/04/11 11:42:49;;;;;;;3.20;2.10;;;16.90;38.80;;;;;;5032205;28;20432;-54
2023/04/11 11:45:19;;;;;;;3.10;1.60;;;17.00;39.90;;;;;;5033247;28;20435;-54
2023/04/11 11:47:46;;;;;;;3.40;1.37;;;17.20;39.80;;;;;;5032839;28;20447;-53
2023/04/11 11:50:24;;;;;;;4.80;1.77;;;17.20;38.20;;;;;;5033019;28;20424;-52
2023/04/11 11:52:50;;;;;;;4.00;1.57;;;17.20;38.80;;;;;;5032881;28;20436;-50
2023/04/11 11:55:18;;;;;;;5.97;1.40;;;17.40;39.80;;;;;;5033042;28;20435;-53
2023/04/11 11:57:45;;;;;;;3.10;1.77;;;17.80;40.30;;;;;;5032661;28;20593;-50
2023/04/11 12:00:12;;;;;;;3.77;1.40;;;18.20;40.10;;;;;;5033214;28;20771;-53
2023/04/11 12:02:40;;;;;;;2.50;1.77;;;18.30;38.40;;;;;;5032983;28;20428;-54
2023/04/11 12:05:09;;;;;;;3.80;1.13;;;18.00;37.60;;;;;;5031642;28;20424;-53
2023/04/11 12:07:38;;;;;;;2.70;1.23;;;17.80;36.70;;;;;;5032736;28;20429;-53
2023/04/11 12:10:10;;;;;;;4.33;1.47;;;17.60;37.00;;;;;;5032995;28;20474;-50
2023/04/11 12:12:38;;;;;;;2.80;1.30;;;17.60;37.10;;;;;;5032983;28;20531;-55
2023/04/11 12:15:18;;;;;;;3.13;1.60;;;17.40;37.90;;;;;;5033019;28;20439;-54
2023/04/11 12:17:48;;;;;;;4.90;1.37;;;17.40;38.50;;;;;;5031518;28;20572;-50
2023/04/11 12:20:15;;;;;;;3.20;1.30;;;17.40;38.60;;;;;;5032630;28;20897;-52
2023/04/11 12:22:41;;;;;;;3.73;1.00;;;17.40;38.20;;;;;;5032622;28;21124;-54
2023/04/11 12:25:11;;;;;;;3.83;1.40;;;17.40;37.90;;;;;;5032769;28;20526;-54
2023/04/11 12:27:38;;;;;;;8.50;1.70;;;17.20;38.60;;;;;;5032251;28;20796;-51
2023/04/11 12:30:05;;;;;;;6.50;1.33;;;17.20;39.40;;;;;;5030892;28;20439;-54
2023/04/11 12:32:34;;;;;;;3.47;1.60;;;17.40;39.30;;;;;;5032480;28;20490;-50
2023/04/11 12:35:00;;;;;;;2.93;1.10;;;17.20;39.30;;;;;;5032520;28;20442;-50
2023/04/11 12:37:25;;;;;;;2.00;1.13;;;17.10;39.40;;;;;;5031905;28;20483;-53
2023/04/11 12:39:51;;;;;;;3.50;1.40;;;16.90;39.00;;;;;;5032329;28;20424;-53
2023/04/11 12:42:17;;;;;;;3.57;1.50;;;16.90;38.70;;;;;;5032259;28;20311;-51
2023/04/11 12:44:43;;;;;;;4.07;1.57;;;16.90;37.50;;;;;;5032171;28;20204;-51
2023/04/11 12:47:10;;;;;;;2.93;1.37;;;17.00;38.00;;;;;;5031767;28;20197;-53
2023/04/11 12:49:36;;;;;;;1.90;1.20;;;17.20;37.90;;;;;;5032195;28;20792;-50